Time;durP1;ratioP1;P1;durP2;ratioP2;P2;SDS_P1;SDS_P2;PMS_P1;PMS_P2;Temp;Humidity;BMP_temperature;BMP_pressure;BME280_temperature;BME280_humidity;BME280_pressure;Samples;Min_cycle;Max_cycle;Signal;HPM_P1;HPM_P2
2022/12/14 00:02:17;;;;;;;;;;;;;;;;;;5053542;28;20308;-72
2022/12/14 00:04:43;;;;;;;;;;;;;;;;;;5053098;28;19917;-72
2022/12/14 00:07:09;;;;;;;;;;;;;;;;;;5053456;28;20023;-72
2022/12/14 00:09:35;;;;;;;;;;;;;;;;;;5053443;28;19909;-72
2022/12/14 00:12:01;;;;;;;;;;;;;;;;;;5051818;28;19916;-72
2022/12/14 00:14:27;;;;;;;;;;;;;;;;;;5053451;28;19909;-72
2022/12/14 00:16:53;;;;;;;;;;;;;;;;;;5053357;28;19917;-72
2022/12/14 00:19:19;;;;;;;;;;;;;;;;;;5052898;28;19908;-72
2022/12/14 00:21:45;;;;;;;;;;;;;;;;;;5052179;28;19916;-72
2022/12/14 00:24:11;;;;;;;;;;;;;;;;;;5052069;28;20276;-72
2022/12/14 00:26:37;;;;;;;;;;;;;;;;;;5052858;28;19912;-72
2022/12/14 00:29:03;;;;;;;;;;;;;;;;;;5053291;28;19908;-72
2022/12/14 00:31:29;;;;;;;;;;;;;;;;;;5053285;28;19932;-72
2022/12/14 00:33:55;;;;;;;;;;;;;;;;;;5052876;28;19909;-72
2022/12/14 00:36:21;;;;;;;;;;;;;;;;;;5052025;28;20381;-73
2022/12/14 00:38:47;;;;;;;;;;;;;;;;;;5053271;28;20365;-73
2022/12/14 00:41:13;;;;;;;;;;;;;;;;;;5053179;28;19920;-72
2022/12/14 00:43:38;;;;;;;;;;;;;;;;;;5051746;28;20391;-72
2022/12/14 00:46:04;;;;;;;;;;;;;;;;;;5052796;28;19963;-73
2022/12/14 00:48:30;;;;;;;;;;;;;;;;;;5053159;28;20007;-72
2022/12/14 00:50:56;;;;;;;;;;;;;;;;;;5051903;28;19915;-72
2022/12/14 00:53:22;;;;;;;;;;;;;;;;;;5054624;28;19909;-71
2022/12/14 00:55:48;;;;;;;;;;;;;;;;;;5056776;28;19913;-72
2022/12/14 00:58:14;;;;;;;;;;;;;;;;;;5055381;28;19948;-72
2022/12/14 01:00:40;;;;;;;;;;;;;;;;;;5056194;28;19909;-72
2022/12/14 01:03:06;;;;;;;;;;;;;;;;;;5056772;28;19961;-72
2022/12/14 01:05:32;;;;;;;;;;;;;;;;;;5056572;28;19917;-74
2022/12/14 01:07:58;;;;;;;;;;;;;;;;;;5056133;28;19909;-73
2022/12/14 01:10:24;;;;;;;;;;;;;;;;;;5056419;28;20000;-72
2022/12/14 01:12:50;;;;;;;;;;;;;;;;;;5055075;28;19916;-73
2022/12/14 01:15:16;;;;;;;;;;;;;;;;;;5055998;28;19909;-74
2022/12/14 01:17:42;;;;;;;;;;;;;;;;;;5056307;28;19916;-72
2022/12/14 01:20:09;;;;;;;;;;;;;;;;;;5055201;28;19916;-72
2022/12/14 01:22:35;;;;;;;;;;;;;;;;;;5055888;28;19913;-72
2022/12/14 01:25:01;;;;;;;;;;;;;;;;;;5056103;28;19978;-72
2022/12/14 01:27:27;;;;;;;;;;;;;;;;;;5056138;28;19909;-72
2022/12/14 01:29:53;;;;;;;;;;;;;;;;;;5055812;28;19916;-72
2022/12/14 01:32:19;;;;;;;;;;;;;;;;;;5056058;28;19908;-72
2022/12/14 01:34:44;;;;;;;;;;;;;;;;;;5056230;28;19975;-72
2022/12/14 01:37:10;;;;;;;;;;;;;;;;;;5055680;28;19951;-73
2022/12/14 01:39:36;;;;;;;;;;;;;;;;;;5055881;28;19912;-72
2022/12/14 01:42:02;;;;;;;;;;;;;;;;;;5055875;28;19962;-72
2022/12/14 01:44:28;;;;;;;;;;;;;;;;;;5055409;28;19960;-72
2022/12/14 01:46:54;;;;;;;;;;;;;;;;;;5055751;28;19987;-72
2022/12/14 01:49:20;;;;;;;;;;;;;;;;;;5054029;28;20386;-72
2022/12/14 01:51:46;;;;;;;;;;;;;;;;;;5055712;28;20284;-72
2022/12/14 01:54:12;;;;;;;;;;;;;;;;;;5055778;28;19948;-72
2022/12/14 01:56:38;;;;;;;;;;;;;;;;;;5055353;28;19909;-72
2022/12/14 01:59:04;;;;;;;;;;;;;;;;;;5055571;28;19909;-72
2022/12/14 02:01:30;;;;;;;;;;;;;;;;;;5055461;28;19936;-74
2022/12/14 02:03:56;;;;;;;;;;;;;;;;;;5054973;28;19908;-72
2022/12/14 02:06:22;;;;;;;;;;;;;;;;;;5055526;28;19909;-73
2022/12/14 02:08:48;;;;;;;;;;;;;;;;;;5054094;28;20072;-72
2022/12/14 02:11:14;;;;;;;;;;;;;;;;;;5055050;28;19909;-72
2022/12/14 02:13:40;;;;;;;;;;;;;;;;;;5055341;28;19913;-72
2022/12/14 02:16:06;;;;;;;;;;;;;;;;;;5054003;28;19944;-73
2022/12/14 02:18:31;;;;;;;;;;;;;;;;;;5054799;28;19916;-72
2022/12/14 02:20:57;;;;;;;;;;;;;;;;;;5055142;28;20391;-72
2022/12/14 02:23:23;;;;;;;;;;;;;;;;;;5055067;28;20270;-72
2022/12/14 02:25:49;;;;;;;;;;;;;;;;;;5053325;28;20291;-72
2022/12/14 02:28:15;;;;;;;;;;;;;;;;;;5054979;28;19909;-72
2022/12/14 02:30:41;;;;;;;;;;;;;;;;;;5055003;28;19995;-72
2022/12/14 02:33:07;;;;;;;;;;;;;;;;;;5053233;28;19909;-72
2022/12/14 02:35:34;;;;;;;;;;;;;;;;;;5054745;28;19915;-72
2022/12/14 02:37:59;;;;;;;;;;;;;;;;;;5053515;28;20365;-72
2022/12/14 02:40:25;;;;;;;;;;;;;;;;;;5054373;28;19916;-73
2022/12/14 02:42:51;;;;;;;;;;;;;;;;;;5053520;28;19915;-73
2022/12/14 02:45:17;;;;;;;;;;;;;;;;;;5054738;28;20019;-72
2022/12/14 02:47:43;;;;;;;;;;;;;;;;;;5054207;28;19916;-72
2022/12/14 02:50:09;;;;;;;;;;;;;;;;;;5054575;28;19958;-72
2022/12/14 02:52:35;;;;;;;;;;;;;;;;;;5054139;28;19955;-72
2022/12/14 02:55:01;;;;;;;;;;;;;;;;;;5054426;28;19909;-72
2022/12/14 02:57:27;;;;;;;;;;;;;;;;;;5054766;28;20371;-72
2022/12/14 02:59:53;;;;;;;;;;;;;;;;;;5054030;28;19909;-72
2022/12/14 03:02:19;;;;;;;;;;;;;;;;;;5053058;28;20499;-72
2022/12/14 03:04:46;;;;;;;;;;;;;;;;;;5054225;28;20383;-72
2022/12/14 03:07:12;;;;;;;;;;;;;;;;;;5052584;28;19959;-73
2022/12/14 03:09:38;;;;;;;;;;;;;;;;;;5054162;28;19909;-71
2022/12/14 03:12:04;;;;;;;;;;;;;;;;;;5054229;28;19916;-73
2022/12/14 03:14:30;;;;;;;;;;;;;;;;;;5052066;28;19919;-71
2022/12/14 03:16:56;;;;;;;;;;;;;;;;;;5054080;28;19923;-72
2022/12/14 03:19:22;;;;;;;;;;;;;;;;;;5054034;28;20334;-71
2022/12/14 03:21:48;;;;;;;;;;;;;;;;;;5052459;28;19932;-72
2022/12/14 03:24:14;;;;;;;;;;;;;;;;;;5053913;28;19917;-72
2022/12/14 03:26:40;;;;;;;;;;;;;;;;;;5053912;28;20066;-72
2022/12/14 03:29:06;;;;;;;;;;;;;;;;;;5052291;28;19909;-72
2022/12/14 03:31:31;;;;;;;;;;;;;;;;;;5052617;28;19909;-72
2022/12/14 03:33:57;;;;;;;;;;;;;;;;;;5053873;28;19916;-72
2022/12/14 03:36:23;;;;;;;;;;;;;;;;;;5053537;28;19908;-71
2022/12/14 03:38:49;;;;;;;;;;;;;;;;;;5053846;28;19948;-71
2022/12/14 03:41:15;;;;;;;;;;;;;;;;;;5053786;28;19915;-72
2022/12/14 03:43:41;;;;;;;;;;;;;;;;;;5051992;28;19915;-71
2022/12/14 03:46:07;;;;;;;;;;;;;;;;;;5053777;28;20360;-72
2022/12/14 03:48:33;;;;;;;;;;;;;;;;;;5053738;28;20427;-72
2022/12/14 03:50:59;;;;;;;;;;;;;;;;;;5053281;28;19913;-73
2022/12/14 03:53:25;;;;;;;;;;;;;;;;;;5052429;28;19909;-72
2022/12/14 03:55:51;;;;;;;;;;;;;;;;;;5052081;28;19909;-72
2022/12/14 03:58:17;;;;;;;;;;;;;;;;;;5053618;28;19909;-72
2022/12/14 04:00:43;;;;;;;;;;;;;;;;;;5053653;28;19916;-72
2022/12/14 04:03:09;;;;;;;;;;;;;;;;;;5053259;28;19909;-72
2022/12/14 04:05:35;;;;;;;;;;;;;;;;;;5053503;28;19987;-72
2022/12/14 04:08:01;;;;;;;;;;;;;;;;;;5053613;28;19916;-73
2022/12/14 04:18:58;;;;;;;;;;;;;;;;;;5053078;28;19916;-72
2022/12/14 04:21:24;;;;;;;;;;;;;;;;;;5053631;28;19909;-72
2022/12/14 04:26:34;;;;;;;;;;;;;;;;;;5053941;28;19975;-71
2022/12/14 04:31:45;;;;;;;;;;;;;;;;;;5056884;28;19916;-72
2022/12/14 04:34:10;;;;;;;;;;;;;;;;;;5055982;28;19909;-72
2022/12/14 04:36:36;;;;;;;;;;;;;;;;;;5057123;28;19971;-72
2022/12/14 04:39:02;;;;;;;;;;;;;;;;;;5056632;28;19913;-72
2022/12/14 04:41:28;;;;;;;;;;;;;;;;;;5055748;28;19916;-72
2022/12/14 04:43:54;;;;;;;;;;;;;;;;;;5055602;28;20390;-72
2022/12/14 04:46:20;;;;;;;;;;;;;;;;;;5056665;28;20431;-72
2022/12/14 04:48:46;;;;;;;;;;;;;;;;;;5056933;28;20288;-72
2022/12/14 04:51:12;;;;;;;;;;;;;;;;;;5057069;28;19909;-72
2022/12/14 04:53:38;;;;;;;;;;;;;;;;;;5056401;28;19909;-72
2022/12/14 04:56:04;;;;;;;;;;;;;;;;;;5055537;28;19959;-72
2022/12/14 04:58:30;;;;;;;;;;;;;;;;;;5056681;28;19967;-72
2022/12/14 05:00:56;;;;;;;;;;;;;;;;;;5056275;28;19908;-72
2022/12/14 05:03:22;;;;;;;;;;;;;;;;;;5056560;28;19909;-72
2022/12/14 05:05:48;;;;;;;;;;;;;;;;;;5055479;28;19916;-73
2022/12/14 05:08:16;;;;;;;;;;;;;;;;;;5054791;28;19967;-73
2022/12/14 05:10:42;;;;;;;;;;;;;;;;;;5055109;28;19913;-73
2022/12/14 05:13:08;;;;;;;;;;;;;;;;;;5056096;28;19909;-72
2022/12/14 05:15:34;;;;;;;;;;;;;;;;;;5056333;28;19971;-72
2022/12/14 05:18:00;;;;;;;;;;;;;;;;;;5056304;28;20423;-73
2022/12/14 05:20:26;;;;;;;;;;;;;;;;;;5056346;28;20365;-73
2022/12/14 05:22:52;;;;;;;;;;;;;;;;;;5054962;28;20365;-73
2022/12/14 05:25:18;;;;;;;;;;;;;;;;;;5056183;28;20355;-73
2022/12/14 05:27:45;;;;;;;;;;;;;;;;;;5055783;28;19915;-72
2022/12/14 05:30:10;;;;;;;;;;;;;;;;;;5056218;28;19931;-72
2022/12/14 05:32:36;;;;;;;;;;;;;;;;;;5054664;28;20397;-72
2022/12/14 05:35:02;;;;;;;;;;;;;;;;;;5055591;28;19909;-72
2022/12/14 05:37:28;;;;;;;;;;;;;;;;;;5055013;28;19909;-71
2022/12/14 05:39:54;;;;;;;;;;;;;;;;;;5055908;28;20356;-72
2022/12/14 05:42:20;;;;;;;;;;;;;;;;;;5055606;28;20369;-73
2022/12/14 05:44:46;;;;;;;;;;;;;;;;;;5054351;28;19925;-73
2022/12/14 05:47:12;;;;;;;;;;;;;;;;;;5055764;28;19909;-72
2022/12/14 05:49:38;;;;;;;;;;;;;;;;;;5055335;28;19908;-72
2022/12/14 05:52:04;;;;;;;;;;;;;;;;;;5055732;28;19916;-73
2022/12/14 05:54:30;;;;;;;;;;;;;;;;;;5055913;28;19978;-73
2022/12/14 05:56:56;;;;;;;;;;;;;;;;;;5054129;28;20243;-73
2022/12/14 05:59:22;;;;;;;;;;;;;;;;;;5054517;28;20285;-73
2022/12/14 06:01:48;;;;;;;;;;;;;;;;;;5054238;28;20254;-74
2022/12/14 06:04:14;;;;;;;;;;;;;;;;;;5055090;28;20352;-74
2022/12/14 06:06:40;;;;;;;;;;;;;;;;;;5054149;28;19923;-73
2022/12/14 06:09:06;;;;;;;;;;;;;;;;;;5055229;28;19909;-73
2022/12/14 06:11:32;;;;;;;;;;;;;;;;;;5053097;28;19909;-74
2022/12/14 06:13:58;;;;;;;;;;;;;;;;;;5053604;28;19913;-72
2022/12/14 06:16:24;;;;;;;;;;;;;;;;;;5052413;28;19995;-72
2022/12/14 06:18:50;;;;;;;;;;;;;;;;;;5053985;28;19966;-73
2022/12/14 06:21:16;;;;;;;;;;;;;;;;;;5053726;28;19989;-72
2022/12/14 06:23:42;;;;;;;;;;;;;;;;;;5052187;28;20288;-72
2022/12/14 06:26:09;;;;;;;;;;;;;;;;;;5042295;28;20325;-72
2022/12/14 06:28:36;;;;;;;;;;;;;;;;;;5010287;28;19960;-72
2022/12/14 06:31:02;;;;;;;;;;;;;;;;;;5030013;28;19945;-83
2022/12/14 06:33:29;;;;;;;;;;;;;;;;;;5031807;28;20308;-82
2022/12/14 06:35:58;;;;;;;;;;;;;;;;;;5026865;28;19964;-76
2022/12/14 06:38:26;;;;;;;;;;;;;;;;;;5026258;28;19967;-72
2022/12/14 06:40:54;;;;;;;;;;;;;;;;;;5031326;28;19916;-72
2022/12/14 06:43:27;;;;;;;;;;;;;;;;;;5031227;28;19920;-70
2022/12/14 06:45:56;;;;;;;;;;;;;;;;;;4990889;28;19922;-70
2022/12/14 06:48:25;;;;;;;;;;;;;;;;;;5033212;28;19925;-71
2022/12/14 06:50:56;;;;;;;;;;;;;;;;;;5009447;28;20351;-70
2022/12/14 06:53:22;;;;;;;;;;;;;;;;;;5010171;28;19910;-70
2022/12/14 06:55:55;;;;;;;;;;;;;;;;;;5020689;28;19909;-70
2022/12/14 06:58:28;;;;;;;;;;;;;;;;;;5032927;28;19917;-73
2022/12/14 07:01:00;;;;;;;;;;;;;;;;;;5008963;28;20366;-73
2022/12/14 07:03:26;;;;;;;;;;;;;;;;;;4981093;28;19922;-69
2022/12/14 07:05:53;;;;;;;;;;;;;;;;;;5009847;28;19989;-69
2022/12/14 07:08:24;;;;;;;;;;;;;;;;;;5012066;28;19913;-68
2022/12/14 07:10:54;;;;;;;;;;;;;;;;;;5012518;28;20358;-68
2022/12/14 07:13:25;;;;;;;;;;;;;;;;;;4988471;28;19918;-69
2022/12/14 07:15:56;;;;;;;;;;;;;;;;;;4970693;28;19969;-67
2022/12/14 07:18:26;;;;;;;;;;;;;;;;;;4973047;28;19914;-70
2022/12/14 07:20:55;;;;;;;;;;;;;;;;;;4973147;28;19961;-67
2022/12/14 07:23:25;;;;;;;;;;;;;;;;;;4970982;28;20425;-67
2022/12/14 07:25:56;;;;;;;;;;;;;;;;;;4973504;28;19918;-68
2022/12/14 07:28:28;;;;;;;;;;;;;;;;;;4972959;28;19914;-68
2022/12/14 07:30:57;;;;;;;;;;;;;;;;;;4971704;28;19957;-70
2022/12/14 07:33:28;;;;;;;;;;;;;;;;;;4973843;28;19964;-68
2022/12/14 07:35:54;;;;;;;;;;;;;;;;;;4970223;28;20028;-70
2022/12/14 07:38:22;;;;;;;;;;;;;;;;;;4972573;28;19922;-69
2022/12/14 07:40:48;;;;;;;;;;;;;;;;;;4973486;28;19910;-69
2022/12/14 07:43:17;;;;;;;;;;;;;;;;;;4974267;28;19910;-72
2022/12/14 07:45:46;;;;;;;;;;;;;;;;;;4990126;28;19937;-70
2022/12/14 07:48:12;;;;;;;;;;;;;;;;;;5022513;28;19945;-71
2022/12/14 07:50:43;;;;;;;;;;;;;;;;;;4992210;28;19996;-70
2022/12/14 07:53:14;;;;;;;;;;;;;;;;;;4992522;28;19913;-71
2022/12/14 07:55:40;;;;;;;;;;;;;;;;;;4992262;28;19925;-71
2022/12/14 07:58:06;;;;;;;;;;;;;;;;;;4993205;28;20263;-71
2022/12/14 08:00:37;;;;;;;;;;;;;;;;;;4991928;28;20020;-72
2022/12/14 08:03:08;;;;;;;;;;;;;;;;;;4996489;28;20067;-72
2022/12/14 08:05:35;;;;;;;;;;;;;;;;;;4976275;28;19926;-71
2022/12/14 08:08:05;;;;;;;;;;;;;;;;;;5016319;28;19918;-71
2022/12/14 08:10:36;;;;;;;;;;;;;;;;;;5016020;28;20255;-71
2022/12/14 08:13:05;;;;;;;;;;;;;;;;;;5014820;28;20428;-71
2022/12/14 08:15:35;;;;;;;;;;;;;;;;;;5016417;28;20329;-72
2022/12/14 08:18:06;;;;;;;;;;;;;;;;;;5016205;28;19914;-73
2022/12/14 08:20:33;;;;;;;;;;;;;;;;;;5015443;28;19914;-69
2022/12/14 08:22:59;;;;;;;;;;;;;;;;;;5015169;28;19952;-74
2022/12/14 08:25:32;;;;;;;;;;;;;;;;;;5015326;28;19949;-69
2022/12/14 08:27:59;;;;;;;;;;;;;;;;;;5014808;28;19988;-70
2022/12/14 08:30:31;;;;;;;;;;;;;;;;;;5013444;28;19917;-71
2022/12/14 08:33:02;;;;;;;;;;;;;;;;;;5013745;28;20317;-71
2022/12/14 08:35:28;;;;;;;;;;;;;;;;;;5014790;28;19917;-70
2022/12/14 08:37:55;;;;;;;;;;;;;;;;;;5013662;28;19910;-70
2022/12/14 08:40:25;;;;;;;;;;;;;;;;;;5016428;28;19976;-72
2022/12/14 08:42:56;;;;;;;;;;;;;;;;;;5016088;28;19909;-72
2022/12/14 08:45:29;;;;;;;;;;;;;;;;;;5015186;28;20621;-68
2022/12/14 08:48:01;;;;;;;;;;;;;;;;;;5015132;28;20378;-70
2022/12/14 08:50:31;;;;;;;;;;;;;;;;;;5015893;28;19913;-70
2022/12/14 08:53:00;;;;;;;;;;;;;;;;;;5015485;28;19910;-71
2022/12/14 08:55:31;;;;;;;;;;;;;;;;;;5014519;28;19959;-72
2022/12/14 08:58:02;;;;;;;;;;;;;;;;;;5014049;28;20044;-72
2022/12/14 09:00:34;;;;;;;;;;;;;;;;;;5013409;28;19917;-71
2022/12/14 09:03:05;;;;;;;;;;;;;;;;;;5014131;28;20333;-72
2022/12/14 09:05:33;;;;;;;;;;;;;;;;;;5011215;28;20290;-73
2022/12/14 09:08:03;;;;;;;;;;;;;;;;;;5015211;28;19917;-72
2022/12/14 09:10:33;;;;;;;;;;;;;;;;;;5009160;28;20266;-71
2022/12/14 09:13:03;;;;;;;;;;;;;;;;;;5012927;28;20479;-71
2022/12/14 09:15:34;;;;;;;;;;;;;;;;;;5014453;28;19913;-69
2022/12/14 09:18:08;;;;;;;;;;;;;;;;;;5014314;28;20459;-73
2022/12/14 09:20:37;;;;;;;;;;;;;;;;;;5014272;28;19909;-74
2022/12/14 09:23:07;;;;;;;;;;;;;;;;;;5012740;28;19921;-73
2022/12/14 09:25:33;;;;;;;;;;;;;;;;;;5030023;28;19948;-75
2022/12/14 09:28:06;;;;;;;;;;;;;;;;;;5014699;28;20281;-75
2022/12/14 09:30:39;;;;;;;;;;;;;;;;;;5013428;28;20354;-75
2022/12/14 09:33:05;;;;;;;;;;;;;;;;;;5013912;28;19952;-71
2022/12/14 09:35:33;;;;;;;;;;;;;;;;;;5013666;28;19937;-74
2022/12/14 09:38:06;;;;;;;;;;;;;;;;;;5015065;28;19975;-72
2022/12/14 09:40:39;;;;;;;;;;;;;;;;;;5013691;28;20366;-71
2022/12/14 09:43:10;;;;;;;;;;;;;;;;;;5013590;28;19913;-70
2022/12/14 09:45:41;;;;;;;;;;;;;;;;;;5014011;28;20412;-71
2022/12/14 09:48:14;;;;;;;;;;;;;;;;;;5014343;28;19909;-71
2022/12/14 09:50:41;;;;;;;;;;;;;;;;;;5013947;28;19983;-70
2022/12/14 09:53:13;;;;;;;;;;;;;;;;;;5013651;28;19913;-71
2022/12/14 09:55:42;;;;;;;;;;;;;;;;;;5012872;28;19914;-70
2022/12/14 09:58:09;;;;;;;;;;;;;;;;;;5014157;28;19945;-71
2022/12/14 10:00:43;;;;;;;;;;;;;;;;;;5014373;28;19956;-71
2022/12/14 10:03:14;;;;;;;;;;;;;;;;;;5013798;28;19913;-68
2022/12/14 10:05:44;;;;;;;;;;;;;;;;;;5014104;28;20359;-69
2022/12/14 10:08:16;;;;;;;;;;;;;;;;;;5013140;28;19948;-68
2022/12/14 10:10:50;;;;;;;;;;;;;;;;;;5014353;28;19917;-69
2022/12/14 10:13:22;;;;;;;;;;;;;;;;;;5013557;28;19909;-68
2022/12/14 10:15:55;;;;;;;;;;;;;;;;;;5013269;28;20235;-69
2022/12/14 10:18:25;;;;;;;;;;;;;;;;;;5013332;28;19914;-69
2022/12/14 10:20:53;;;;;;;;;;;;;;;;;;5013886;28;19941;-70
2022/12/14 10:23:23;;;;;;;;;;;;;;;;;;5013445;28;19914;-69
2022/12/14 10:25:55;;;;;;;;;;;;;;;;;;5013172;28;19917;-69
2022/12/14 10:28:25;;;;;;;;;;;;;;;;;;5014049;28;19917;-69
2022/12/14 10:30:53;;;;;;;;;;;;;;;;;;5011684;28;19910;-70
2022/12/14 10:33:24;;;;;;;;;;;;;;;;;;5011278;28;20363;-69
2022/12/14 10:35:54;;;;;;;;;;;;;;;;;;5007386;28;19968;-70
2022/12/14 10:38:28;;;;;;;;;;;;;;;;;;5011150;28;20004;-69
2022/12/14 10:40:57;;;;;;;;;;;;;;;;;;5012082;28;19936;-67
2022/12/14 10:43:26;;;;;;;;;;;;;;;;;;5011537;28;20444;-67
2022/12/14 10:45:59;;;;;;;;;;;;;;;;;;5010121;28;19932;-68
2022/12/14 10:48:31;;;;;;;;;;;;;;;;;;5011552;28;19993;-70
2022/12/14 10:51:04;;;;;;;;;;;;;;;;;;5010476;28;19916;-68
2022/12/14 10:53:36;;;;;;;;;;;;;;;;;;5012219;28;19921;-68
2022/12/14 10:56:04;;;;;;;;;;;;;;;;;;5013031;28;19917;-68
2022/12/14 10:58:33;;;;;;;;;;;;;;;;;;5013330;28;20004;-68
2022/12/14 11:01:02;;;;;;;;;;;;;;;;;;5013124;28;19947;-67
2022/12/14 11:03:33;;;;;;;;;;;;;;;;;;5012925;28;19910;-67
2022/12/14 11:06:01;;;;;;;;;;;;;;;;;;5012793;28;19928;-72
2022/12/14 11:08:29;;;;;;;;;;;;;;;;;;5013269;28;19910;-71
2022/12/14 11:11:00;;;;;;;;;;;;;;;;;;5011641;28;19999;-72
2022/12/14 11:13:29;;;;;;;;;;;;;;;;;;5012504;28;19909;-72
2022/12/14 11:15:56;;;;;;;;;;;;;;;;;;5011362;28;19968;-71
2022/12/14 11:18:27;;;;;;;;;;;;;;;;;;5009928;28;19914;-72
2022/12/14 11:20:56;;;;;;;;;;;;;;;;;;5012266;28;19913;-72
2022/12/14 11:23:24;;;;;;;;;;;;;;;;;;5010551;28;19960;-72
2022/12/14 11:25:50;;;;;;;;;;;;;;;;;;5011649;28;20020;-72
2022/12/14 11:28:16;;;;;;;;;;;;;;;;;;5012752;28;19944;-72
2022/12/14 11:30:46;;;;;;;;;;;;;;;;;;5012566;28;19910;-72
2022/12/14 11:33:16;;;;;;;;;;;;;;;;;;5012310;28;19921;-74
2022/12/14 11:35:46;;;;;;;;;;;;;;;;;;5011161;28;19947;-78
2022/12/14 11:38:15;;;;;;;;;;;;;;;;;;5008552;28;19910;-76
2022/12/14 11:40:45;;;;;;;;;;;;;;;;;;5010700;28;19964;-75
2022/12/14 11:43:11;;;;;;;;;;;;;;;;;;5012088;28;20354;-76
2022/12/14 11:45:41;;;;;;;;;;;;;;;;;;5013257;28;20008;-79
2022/12/14 11:48:21;;;;;;;;;;;;;;;;;;5012629;28;20459;-79
2022/12/14 11:50:54;;;;;;;;;;;;;;;;;;5013103;28;19956;-77
2022/12/14 11:53:21;;;;;;;;;;;;;;;;;;5013736;28;19914;-79
2022/12/14 11:55:54;;;;;;;;;;;;;;;;;;5013140;28;20030;-78
2022/12/14 11:58:28;;;;;;;;;;;;;;;;;;5012598;28;19913;-78
2022/12/14 12:01:00;;;;;;;;;;;;;;;;;;5010976;28;20016;-76
2022/12/14 12:03:26;;;;;;;;;;;;;;;;;;5011944;28;19973;-74
2022/12/14 12:05:58;;;;;;;;;;;;;;;;;;5008022;28;19925;-74
2022/12/14 12:08:27;;;;;;;;;;;;;;;;;;5009060;28;19921;-77
2022/12/14 12:10:55;;;;;;;;;;;;;;;;;;5011620;28;19910;-74
2022/12/14 12:13:23;;;;;;;;;;;;;;;;;;5042149;28;19968;-73
2022/12/14 12:15:53;;;;;;;;;;;;;;;;;;5011865;28;20005;-72
2022/12/14 12:18:23;;;;;;;;;;;;;;;;;;5012503;28;20362;-68
2022/12/14 12:20:54;;;;;;;;;;;;;;;;;;5010790;28;19910;-68
2022/12/14 12:23:24;;;;;;;;;;;;;;;;;;5011930;28;19909;-68
2022/12/14 12:25:57;;;;;;;;;;;;;;;;;;5011806;28;19961;-69
2022/12/14 12:28:30;;;;;;;;;;;;;;;;;;5011240;28;19917;-70
2022/12/14 12:31:01;;;;;;;;;;;;;;;;;;5011422;28;20381;-72
2022/12/14 12:33:32;;;;;;;;;;;;;;;;;;5010348;28;19910;-71
2022/12/14 12:36:06;;;;;;;;;;;;;;;;;;5010311;28;19916;-71
2022/12/14 12:38:35;;;;;;;;;;;;;;;;;;5011484;28;19924;-71
2022/12/14 12:41:06;;;;;;;;;;;;;;;;;;5010185;28;20298;-70
2022/12/14 12:43:38;;;;;;;;;;;;;;;;;;5011008;28;19909;-73
2022/12/14 12:46:08;;;;;;;;;;;;;;;;;;5008325;28;20370;-73
2022/12/14 12:48:36;;;;;;;;;;;;;;;;;;4995838;28;19922;-74
2022/12/14 12:51:04;;;;;;;;;;;;;;;;;;5016007;28;20271;-73
2022/12/14 12:53:33;;;;;;;;;;;;;;;;;;5015183;28;20306;-72
2022/12/14 12:55:59;;;;;;;;;;;;;;;;;;5015298;28;19920;-72
2022/12/14 12:58:25;;;;;;;;;;;;;;;;;;5016128;28;19963;-72
2022/12/14 13:00:53;;;;;;;;;;;;;;;;;;5016196;28;19980;-71
2022/12/14 13:03:19;;;;;;;;;;;;;;;;;;5016142;28;19910;-73
2022/12/14 13:05:45;;;;;;;;;;;;;;;;;;5015889;28;20380;-72
2022/12/14 13:08:11;;;;;;;;;;;;;;;;;;5016100;28;19910;-72
2022/12/14 13:10:37;;;;;;;;;;;;;;;;;;5031392;28;19916;-70
2022/12/14 13:13:03;;;;;;;;;;;;;;;;;;5024562;28;19917;-72
2022/12/14 13:15:29;;;;;;;;;;;;;;;;;;5016231;28;20000;-70
2022/12/14 13:17:55;;;;;;;;;;;;;;;;;;5016059;28;20425;-71
2022/12/14 13:20:20;;;;;;;;;;;;;;;;;;5014314;28;20416;-71
2022/12/14 13:22:46;;;;;;;;;;;;;;;;;;5016212;28;20384;-72
2022/12/14 13:25:12;;;;;;;;;;;;;;;;;;5015495;28;19961;-73
2022/12/14 13:27:39;;;;;;;;;;;;;;;;;;5014277;28;19959;-70
2022/12/14 13:30:05;;;;;;;;;;;;;;;;;;5015781;28;19910;-70
2022/12/14 13:32:31;;;;;;;;;;;;;;;;;;5014306;28;20338;-72
2022/12/14 13:34:57;;;;;;;;;;;;;;;;;;5015659;28;19913;-72
2022/12/14 13:37:23;;;;;;;;;;;;;;;;;;5014472;28;20004;-73
2022/12/14 13:39:49;;;;;;;;;;;;;;;;;;5015678;28;19910;-73
2022/12/14 13:42:15;;;;;;;;;;;;;;;;;;5015664;28;19924;-72
2022/12/14 13:44:41;;;;;;;;;;;;;;;;;;5014409;28;20017;-73
2022/12/14 13:47:07;;;;;;;;;;;;;;;;;;5015073;28;19909;-74
2022/12/14 13:49:33;;;;;;;;;;;;;;;;;;5015605;28;19964;-73
2022/12/14 13:51:58;;;;;;;;;;;;;;;;;;5015233;28;20000;-73
2022/12/14 13:54:26;;;;;;;;;;;;;;;;;;5015516;28;19910;-70
2022/12/14 13:56:52;;;;;;;;;;;;;;;;;;5015406;28;19910;-70
2022/12/14 13:59:19;;;;;;;;;;;;;;;;;;5013668;28;19933;-70
2022/12/14 14:01:45;;;;;;;;;;;;;;;;;;5014574;28;20303;-71
2022/12/14 14:04:14;;;;;;;;;;;;;;;;;;5014411;28;20056;-70
2022/12/14 14:06:40;;;;;;;;;;;;;;;;;;5015537;28;20008;-70
2022/12/14 14:09:06;;;;;;;;;;;;;;;;;;5015290;28;20003;-69
2022/12/14 14:11:32;;;;;;;;;;;;;;;;;;5015579;28;20004;-71
2022/12/14 14:13:58;;;;;;;;;;;;;;;;;;5015458;28;19909;-70
2022/12/14 14:16:24;;;;;;;;;;;;;;;;;;5015148;28;19940;-71
2022/12/14 14:18:49;;;;;;;;;;;;;;;;;;5015497;28;19917;-70
2022/12/14 14:21:15;;;;;;;;;;;;;;;;;;5015519;28;19910;-69
2022/12/14 14:23:41;;;;;;;;;;;;;;;;;;5013505;28;20007;-69
2022/12/14 14:26:07;;;;;;;;;;;;;;;;;;5015288;28;19917;-72
2022/12/14 14:28:33;;;;;;;;;;;;;;;;;;5015569;28;19910;-70
2022/12/14 14:30:59;;;;;;;;;;;;;;;;;;5014817;28;19924;-70
2022/12/14 14:33:25;;;;;;;;;;;;;;;;;;5015223;28;19917;-70
2022/12/14 14:35:51;;;;;;;;;;;;;;;;;;5014680;28;19909;-71
2022/12/14 14:38:17;;;;;;;;;;;;;;;;;;5015113;28;19917;-71
2022/12/14 14:40:43;;;;;;;;;;;;;;;;;;5015245;28;19910;-70
2022/12/14 14:43:09;;;;;;;;;;;;;;;;;;5014654;28;19910;-70
2022/12/14 14:45:35;;;;;;;;;;;;;;;;;;5014866;28;19928;-70
2022/12/14 14:48:01;;;;;;;;;;;;;;;;;;5015061;28;20382;-70
2022/12/14 14:50:27;;;;;;;;;;;;;;;;;;5014577;28;19916;-71
2022/12/14 14:52:53;;;;;;;;;;;;;;;;;;5013713;28;19964;-70
2022/12/14 14:55:19;;;;;;;;;;;;;;;;;;5014862;28;19913;-70
2022/12/14 14:57:45;;;;;;;;;;;;;;;;;;5014108;28;19910;-70
2022/12/14 15:00:11;;;;;;;;;;;;;;;;;;5014703;28;19948;-70
2022/12/14 15:02:37;;;;;;;;;;;;;;;;;;5014718;28;19910;-69
2022/12/14 15:05:03;;;;;;;;;;;;;;;;;;5014305;28;19925;-69
2022/12/14 15:07:29;;;;;;;;;;;;;;;;;;5014660;28;19910;-70
2022/12/14 15:09:56;;;;;;;;;;;;;;;;;;5014506;28;19916;-69
2022/12/14 15:12:22;;;;;;;;;;;;;;;;;;5013805;28;19909;-70
2022/12/14 15:14:48;;;;;;;;;;;;;;;;;;5014392;28;19916;-69
2022/12/14 15:17:14;;;;;;;;;;;;;;;;;;5014419;28;19910;-69
2022/12/14 15:19:40;;;;;;;;;;;;;;;;;;5013934;28;19916;-69
2022/12/14 15:22:06;;;;;;;;;;;;;;;;;;5009335;28;19910;-68
2022/12/14 15:24:32;;;;;;;;;;;;;;;;;;4994534;28;19914;-68
2022/12/14 15:26:59;;;;;;;;;;;;;;;;;;4994493;28;19944;-70
2022/12/14 15:29:25;;;;;;;;;;;;;;;;;;4994509;28;20406;-70
2022/12/14 15:31:51;;;;;;;;;;;;;;;;;;4994546;28;20326;-68
2022/12/14 15:34:17;;;;;;;;;;;;;;;;;;4993974;28;19910;-69
2022/12/14 15:36:43;;;;;;;;;;;;;;;;;;4994537;28;19965;-68
2022/12/14 15:39:09;;;;;;;;;;;;;;;;;;5009305;28;19956;-71
2022/12/14 15:41:35;;;;;;;;;;;;;;;;;;4994444;28;20259;-70
2022/12/14 15:44:01;;;;;;;;;;;;;;;;;;4994212;28;19909;-69
2022/12/14 15:46:27;;;;;;;;;;;;;;;;;;5008794;28;20012;-69
2022/12/14 15:48:53;;;;;;;;;;;;;;;;;;4993236;28;19955;-69
2022/12/14 15:51:18;;;;;;;;;;;;;;;;;;4994230;28;19917;-69
2022/12/14 15:53:44;;;;;;;;;;;;;;;;;;4993831;28;19909;-69
2022/12/14 15:56:10;;;;;;;;;;;;;;;;;;4993040;28;20052;-69
2022/12/14 15:58:37;;;;;;;;;;;;;;;;;;4992317;28;19910;-69
2022/12/14 16:01:03;;;;;;;;;;;;;;;;;;4991854;28;19910;-71
2022/12/14 16:03:29;;;;;;;;;;;;;;;;;;4992311;28;19913;-71
2022/12/14 16:05:55;;;;;;;;;;;;;;;;;;4992675;28;20008;-71
2022/12/14 16:08:21;;;;;;;;;;;;;;;;;;5006792;28;19965;-71
2022/12/14 16:10:47;;;;;;;;;;;;;;;;;;4992134;28;20353;-70
2022/12/14 16:13:13;;;;;;;;;;;;;;;;;;4994129;28;19910;-69
2022/12/14 16:15:39;;;;;;;;;;;;;;;;;;5025146;28;19917;-69
2022/12/14 16:18:05;;;;;;;;;;;;;;;;;;4994004;28;19913;-69
2022/12/14 16:20:31;;;;;;;;;;;;;;;;;;5009040;28;19910;-68
2022/12/14 16:22:58;;;;;;;;;;;;;;;;;;4996396;28;19910;-69
2022/12/14 16:25:24;;;;;;;;;;;;;;;;;;4997411;28;19920;-69
2022/12/14 16:27:49;;;;;;;;;;;;;;;;;;4995802;28;20000;-69
2022/12/14 16:30:16;;;;;;;;;;;;;;;;;;4995508;28;19910;-70
2022/12/14 16:32:42;;;;;;;;;;;;;;;;;;4995718;28;20303;-70
2022/12/14 16:35:08;;;;;;;;;;;;;;;;;;4997215;28;19917;-70
2022/12/14 16:37:34;;;;;;;;;;;;;;;;;;4997140;28;20372;-70
2022/12/14 16:40:00;;;;;;;;;;;;;;;;;;4997561;28;19913;-70
2022/12/14 16:42:26;;;;;;;;;;;;;;;;;;4997300;28;19953;-69
2022/12/14 16:44:54;;;;;;;;;;;;;;;;;;4997255;28;19929;-71
2022/12/14 16:47:20;;;;;;;;;;;;;;;;;;4997667;28;19910;-70
2022/12/14 16:49:46;;;;;;;;;;;;;;;;;;4997085;28;19917;-70
2022/12/14 16:52:12;;;;;;;;;;;;;;;;;;4997278;28;19964;-71
2022/12/14 16:54:38;;;;;;;;;;;;;;;;;;4997243;28;19953;-70
2022/12/14 16:57:04;;;;;;;;;;;;;;;;;;4997063;28;19964;-70
2022/12/14 16:59:30;;;;;;;;;;;;;;;;;;4997136;28;20260;-70
2022/12/14 17:01:56;;;;;;;;;;;;;;;;;;4997196;28;19914;-70